イカルイト の空港の天気 - METARとTAF

イカルイト空港 ( CYFB / YFB ) - カナダ ヌナブト準州イカルイト
飛行場実況気象(Metar)
観測時間04/27 00:00 EDT (04/27 04:00 UTC)
風向・風速北北西 6m/s
視程10km以上
天気現象
なし
気温-16℃
湿度65%
気圧1006.9hPa
METARCYFB 270400Z 33011KT 15SM SKC M16/M21 A2972 RMK SLP069
過去の天気等 Google飛行場航空写真 Wunderground天気予報

過去48時間のMETAR

飛行場予報(TAF)
発表時間: 4/26 19:38 EDT (4/26 23:38 UTC)
予報対象時間: 26日20時 EDT ~ 27日20時 EDT
風向・風速北北西 6m/s
視程10km以上
少しの雲 雲底高度 760m
27日2時 EDT から
風向・風速西南西 3m/s
視程10km以上
全天の8割程度の雲 雲底高度 760m
27日2時 EDT ~ 27日11時 EDT に一時的に
視程10km以上
天気現象弱い雪
全天の8割程度の雲 雲底高度 610m
27日9時 EDT ~ 27日11時 EDT に徐々に
風向・風速北西 8m/s
TAF CYFB 262338Z 2700/2724 34012KT P6SM FEW025
FM270600 25006KT P6SM BKN025
TEMPO 2706/2715 6SM -SN BKN020
BECMG 2713/2715 32015KT RMK NXT FCST BY 270600Z